sensor_id;sensor_type;location;lat;lon;timestamp;temperature;humidity
77519;DHT22;66629;47.346;19.038;2023-01-16T00:00:17;4.51;95.51
77519;DHT22;66629;47.346;19.038;2023-01-16T00:02:43;4.50;95.61
77519;DHT22;66629;47.346;19.038;2023-01-16T00:05:08;4.51;95.57
77519;DHT22;66629;47.346;19.038;2023-01-16T00:07:33;4.51;95.48
77519;DHT22;66629;47.346;19.038;2023-01-16T00:09:59;4.51;95.42
77519;DHT22;66629;47.346;19.038;2023-01-16T00:12:24;4.54;95.34
77519;DHT22;66629;47.346;19.038;2023-01-16T00:14:50;4.53;95.37
77519;DHT22;66629;47.346;19.038;2023-01-16T00:17:15;4.57;95.41
77519;DHT22;66629;47.346;19.038;2023-01-16T00:19:40;4.58;95.37
77519;DHT22;66629;47.346;19.038;2023-01-16T00:22:06;4.58;95.32
77519;DHT22;66629;47.346;19.038;2023-01-16T00:24:31;4.61;95.20
77519;DHT22;66629;47.346;19.038;2023-01-16T00:26:57;4.62;95.22
77519;DHT22;66629;47.346;19.038;2023-01-16T00:29:22;4.62;95.44
77519;DHT22;66629;47.346;19.038;2023-01-16T00:31:48;4.62;95.30
77519;DHT22;66629;47.346;19.038;2023-01-16T00:34:13;4.58;95.47
77519;DHT22;66629;47.346;19.038;2023-01-16T00:36:38;4.58;95.39
77519;DHT22;66629;47.346;19.038;2023-01-16T00:39:04;4.57;95.39
77519;DHT22;66629;47.346;19.038;2023-01-16T00:41:30;4.60;95.33
77519;DHT22;66629;47.346;19.038;2023-01-16T00:43:56;4.58;95.43
77519;DHT22;66629;47.346;19.038;2023-01-16T00:46:26;4.58;95.36
77519;DHT22;66629;47.346;19.038;2023-01-16T00:48:54;4.60;95.38
77519;DHT22;66629;47.346;19.038;2023-01-16T00:51:20;4.56;95.46
77519;DHT22;66629;47.346;19.038;2023-01-16T00:53:45;4.56;95.48
77519;DHT22;66629;47.346;19.038;2023-01-16T00:56:10;4.54;95.65
77519;DHT22;66629;47.346;19.038;2023-01-16T00:58:36;4.53;95.57
77519;DHT22;66629;47.346;19.038;2023-01-16T01:01:02;4.54;95.58
77519;DHT22;66629;47.346;19.038;2023-01-16T01:03:28;4.56;95.52
77519;DHT22;66629;47.346;19.038;2023-01-16T01:05:53;4.54;95.60
77519;DHT22;66629;47.346;19.038;2023-01-16T01:08:19;4.54;95.66
77519;DHT22;66629;47.346;19.038;2023-01-16T01:10:44;4.56;95.51
77519;DHT22;66629;47.346;19.038;2023-01-16T01:13:10;4.54;95.55
77519;DHT22;66629;47.346;19.038;2023-01-16T01:15:36;4.53;95.62
77519;DHT22;66629;47.346;19.038;2023-01-16T01:18:01;4.51;95.68
77519;DHT22;66629;47.346;19.038;2023-01-16T01:20:27;4.50;95.79
77519;DHT22;66629;47.346;19.038;2023-01-16T01:22:52;4.54;95.73
77519;DHT22;66629;47.346;19.038;2023-01-16T01:25:18;4.51;95.67
77519;DHT22;66629;47.346;19.038;2023-01-16T01:27:43;4.56;95.62
77519;DHT22;66629;47.346;19.038;2023-01-16T01:30:09;4.53;95.52
77519;DHT22;66629;47.346;19.038;2023-01-16T01:32:35;4.53;95.48
77519;DHT22;66629;47.346;19.038;2023-01-16T01:35:03;4.47;95.53
77519;DHT22;66629;47.346;19.038;2023-01-16T01:37:29;4.46;95.74
77519;DHT22;66629;47.346;19.038;2023-01-16T01:39:54;4.46;96.12
77519;DHT22;66629;47.346;19.038;2023-01-16T01:42:20;4.44;96.00
77519;DHT22;66629;47.346;19.038;2023-01-16T01:45:20;4.43;96.19
77519;DHT22;66629;47.346;19.038;2023-01-16T01:50:49;4.44;96.38
77519;DHT22;66629;47.346;19.038;2023-01-16T01:53:22;4.43;96.43
77519;DHT22;66629;47.346;19.038;2023-01-16T01:55:50;4.46;96.56
77519;DHT22;66629;47.346;19.038;2023-01-16T01:58:18;4.47;96.55
77519;DHT22;66629;47.346;19.038;2023-01-16T02:00:48;4.46;96.58
77519;DHT22;66629;47.346;19.038;2023-01-16T02:03:19;4.41;96.62
77519;DHT22;66629;47.346;19.038;2023-01-16T02:05:52;4.43;96.65
77519;DHT22;66629;47.346;19.038;2023-01-16T02:08:21;4.43;96.64
77519;DHT22;66629;47.346;19.038;2023-01-16T02:10:55;4.43;96.66
77519;DHT22;66629;47.346;19.038;2023-01-16T02:13:21;4.41;96.50
77519;DHT22;66629;47.346;19.038;2023-01-16T02:15:47;4.43;96.59
77519;DHT22;66629;47.346;19.038;2023-01-16T02:18:31;4.44;96.56
77519;DHT22;66629;47.346;19.038;2023-01-16T02:32:37;4.40;96.52
77519;DHT22;66629;47.346;19.038;2023-01-16T02:38:08;4.43;96.52
77519;DHT22;66629;47.346;19.038;2023-01-16T02:43:34;4.44;96.34
77519;DHT22;66629;47.346;19.038;2023-01-16T02:46:13;4.43;96.45
77519;DHT22;66629;47.346;19.038;2023-01-16T02:48:48;4.46;96.45
77519;DHT22;66629;47.346;19.038;2023-01-16T02:53:51;4.47;96.02
77519;DHT22;66629;47.346;19.038;2023-01-16T02:56:24;4.44;96.29
77519;DHT22;66629;47.346;19.038;2023-01-16T02:58:52;4.41;96.42
77519;DHT22;66629;47.346;19.038;2023-01-16T03:01:18;4.43;96.56
77519;DHT22;66629;47.346;19.038;2023-01-16T03:04:03;4.39;96.16
77519;DHT22;66629;47.346;19.038;2023-01-16T03:12:18;4.36;96.48
77519;DHT22;66629;47.346;19.038;2023-01-16T03:21:05;4.39;96.59
77519;DHT22;66629;47.346;19.038;2023-01-16T03:26:45;4.41;96.54
77519;DHT22;66629;47.346;19.038;2023-01-16T03:31:52;4.40;96.69
77519;DHT22;66629;47.346;19.038;2023-01-16T03:34:34;4.40;96.74
77519;DHT22;66629;47.346;19.038;2023-01-16T03:37:11;4.34;97.03
77519;DHT22;66629;47.346;19.038;2023-01-16T03:39:41;4.32;97.28
77519;DHT22;66629;47.346;19.038;2023-01-16T03:42:13;4.34;97.12
77519;DHT22;66629;47.346;19.038;2023-01-16T03:44:42;4.34;97.21
77519;DHT22;66629;47.346;19.038;2023-01-16T03:47:14;4.37;96.96
77519;DHT22;66629;47.346;19.038;2023-01-16T03:49:47;4.37;96.62
77519;DHT22;66629;47.346;19.038;2023-01-16T03:52:16;4.43;96.57
77519;DHT22;66629;47.346;19.038;2023-01-16T03:57:41;4.39;96.59
77519;DHT22;66629;47.346;19.038;2023-01-16T04:00:10;4.40;96.26
77519;DHT22;66629;47.346;19.038;2023-01-16T04:03:00;4.36;96.12
77519;DHT22;66629;47.346;19.038;2023-01-16T04:05:48;4.37;96.28
77519;DHT22;66629;47.346;19.038;2023-01-16T04:08:21;4.39;96.54
77519;DHT22;66629;47.346;19.038;2023-01-16T04:10:48;4.41;96.45
77519;DHT22;66629;47.346;19.038;2023-01-16T04:13:18;4.39;96.29
77519;DHT22;66629;47.346;19.038;2023-01-16T04:15:48;4.37;96.40
77519;DHT22;66629;47.346;19.038;2023-01-16T04:18:15;4.37;96.27
77519;DHT22;66629;47.346;19.038;2023-01-16T04:20:43;4.37;96.20
77519;DHT22;66629;47.346;19.038;2023-01-16T04:23:09;4.33;96.31
77519;DHT22;66629;47.346;19.038;2023-01-16T04:25:36;4.32;96.27
77519;DHT22;66629;47.346;19.038;2023-01-16T04:28:02;4.30;96.13
77519;DHT22;66629;47.346;19.038;2023-01-16T04:30:27;4.30;96.20
77519;DHT22;66629;47.346;19.038;2023-01-16T04:32:52;4.32;96.56
77519;DHT22;66629;47.346;19.038;2023-01-16T04:35:18;4.33;96.50
77519;DHT22;66629;47.346;19.038;2023-01-16T04:37:43;4.37;96.44
77519;DHT22;66629;47.346;19.038;2023-01-16T04:40:09;4.36;96.22
77519;DHT22;66629;47.346;19.038;2023-01-16T04:42:35;4.34;96.16
77519;DHT22;66629;47.346;19.038;2023-01-16T04:45:01;4.26;96.31
77519;DHT22;66629;47.346;19.038;2023-01-16T04:47:27;4.26;96.58
77519;DHT22;66629;47.346;19.038;2023-01-16T04:49:52;4.24;96.40
77519;DHT22;66629;47.346;19.038;2023-01-16T04:52:18;4.26;96.72
77519;DHT22;66629;47.346;19.038;2023-01-16T04:54:43;4.24;96.83
77519;DHT22;66629;47.346;19.038;2023-01-16T04:57:09;4.29;96.60
77519;DHT22;66629;47.346;19.038;2023-01-16T04:59:34;4.28;96.89
77519;DHT22;66629;47.346;19.038;2023-01-16T05:01:59;4.29;97.01
77519;DHT22;66629;47.346;19.038;2023-01-16T05:04:25;4.37;96.73
77519;DHT22;66629;47.346;19.038;2023-01-16T05:06:50;4.30;97.25
77519;DHT22;66629;47.346;19.038;2023-01-16T05:09:16;4.28;97.27
77519;DHT22;66629;47.346;19.038;2023-01-16T05:11:41;4.30;97.37
77519;DHT22;66629;47.346;19.038;2023-01-16T05:14:07;4.30;97.20
77519;DHT22;66629;47.346;19.038;2023-01-16T05:16:37;4.28;97.25
77519;DHT22;66629;47.346;19.038;2023-01-16T05:19:04;4.26;97.39
77519;DHT22;66629;47.346;19.038;2023-01-16T05:21:30;4.22;97.18
77519;DHT22;66629;47.346;19.038;2023-01-16T05:23:55;4.19;97.48
77519;DHT22;66629;47.346;19.038;2023-01-16T05:26:20;4.17;97.50
77519;DHT22;66629;47.346;19.038;2023-01-16T05:28:46;4.17;97.67
77519;DHT22;66629;47.346;19.038;2023-01-16T05:31:11;4.13;97.74
77519;DHT22;66629;47.346;19.038;2023-01-16T05:33:37;4.12;97.91
77519;DHT22;66629;47.346;19.038;2023-01-16T05:36:02;4.10;97.90
77519;DHT22;66629;47.346;19.038;2023-01-16T05:38:28;4.07;98.02
77519;DHT22;66629;47.346;19.038;2023-01-16T05:40:53;4.13;97.72
77519;DHT22;66629;47.346;19.038;2023-01-16T05:43:19;4.16;97.46
77519;DHT22;66629;47.346;19.038;2023-01-16T05:45:44;4.15;97.17
77519;DHT22;66629;47.346;19.038;2023-01-16T05:48:09;4.15;97.21
77519;DHT22;66629;47.346;19.038;2023-01-16T05:50:35;4.15;97.00
77519;DHT22;66629;47.346;19.038;2023-01-16T05:53:01;4.07;97.27
77519;DHT22;66629;47.346;19.038;2023-01-16T05:55:26;4.03;97.50
77519;DHT22;66629;47.346;19.038;2023-01-16T05:57:51;4.02;97.61
77519;DHT22;66629;47.346;19.038;2023-01-16T06:00:17;3.99;97.94
77519;DHT22;66629;47.346;19.038;2023-01-16T06:02:43;3.99;97.96
77519;DHT22;66629;47.346;19.038;2023-01-16T06:05:11;4.02;97.59
77519;DHT22;66629;47.346;19.038;2023-01-16T06:07:37;4.03;97.40
77519;DHT22;66629;47.346;19.038;2023-01-16T06:10:03;4.07;97.19
77519;DHT22;66629;47.346;19.038;2023-01-16T06:12:28;4.06;97.25
77519;DHT22;66629;47.346;19.038;2023-01-16T06:14:54;4.06;97.30
77519;DHT22;66629;47.346;19.038;2023-01-16T06:17:19;4.09;97.32
77519;DHT22;66629;47.346;19.038;2023-01-16T06:19:45;4.05;97.59
77519;DHT22;66629;47.346;19.038;2023-01-16T06:22:13;4.07;97.79
77519;DHT22;66629;47.346;19.038;2023-01-16T06:24:39;4.13;97.36
77519;DHT22;66629;47.346;19.038;2023-01-16T06:27:05;4.07;97.68
77519;DHT22;66629;47.346;19.038;2023-01-16T06:29:30;4.03;97.93
77519;DHT22;66629;47.346;19.038;2023-01-16T06:31:55;4.07;97.98
77519;DHT22;66629;47.346;19.038;2023-01-16T06:34:21;4.12;98.33
77519;DHT22;66629;47.346;19.038;2023-01-16T06:36:46;4.07;98.06
77519;DHT22;66629;47.346;19.038;2023-01-16T06:39:14;4.07;98.23
77519;DHT22;66629;47.346;19.038;2023-01-16T06:41:40;4.09;98.16
77519;DHT22;66629;47.346;19.038;2023-01-16T06:44:05;4.19;97.96
77519;DHT22;66629;47.346;19.038;2023-01-16T06:46:31;4.20;97.76
77519;DHT22;66629;47.346;19.038;2023-01-16T06:48:56;4.26;97.53
77519;DHT22;66629;47.346;19.038;2023-01-16T06:51:22;4.29;97.57
77519;DHT22;66629;47.346;19.038;2023-01-16T06:53:47;4.29;97.53
77519;DHT22;66629;47.346;19.038;2023-01-16T06:56:13;4.30;97.42
77519;DHT22;66629;47.346;19.038;2023-01-16T06:58:38;4.30;97.57
77519;DHT22;66629;47.346;19.038;2023-01-16T07:01:04;4.33;97.43
77519;DHT22;66629;47.346;19.038;2023-01-16T07:03:30;4.40;97.09
77519;DHT22;66629;47.346;19.038;2023-01-16T07:05:56;4.37;97.22
77519;DHT22;66629;47.346;19.038;2023-01-16T07:08:21;4.39;97.14
77519;DHT22;66629;47.346;19.038;2023-01-16T07:10:47;4.39;96.97
77519;DHT22;66629;47.346;19.038;2023-01-16T07:13:12;4.34;97.14
77519;DHT22;66629;47.346;19.038;2023-01-16T07:15:38;4.37;96.85
77519;DHT22;66629;47.346;19.038;2023-01-16T07:18:22;4.39;96.91
77519;DHT22;66629;47.346;19.038;2023-01-16T07:21:10;4.37;96.85
77519;DHT22;66629;47.346;19.038;2023-01-16T07:24:02;4.41;97.66
77519;DHT22;66629;47.346;19.038;2023-01-16T07:26:29;4.34;96.92
77519;DHT22;66629;47.346;19.038;2023-01-16T07:28:56;4.40;97.23
77519;DHT22;66629;47.346;19.038;2023-01-16T07:31:23;4.39;96.85
77519;DHT22;66629;47.346;19.038;2023-01-16T07:33:49;4.39;96.88
77519;DHT22;66629;47.346;19.038;2023-01-16T07:36:14;4.37;96.95
77519;DHT22;66629;47.346;19.038;2023-01-16T07:38:40;4.41;96.94
77519;DHT22;66629;47.346;19.038;2023-01-16T07:41:05;4.39;96.88
77519;DHT22;66629;47.346;19.038;2023-01-16T07:43:30;4.44;96.95
77519;DHT22;66629;47.346;19.038;2023-01-16T07:45:56;4.44;96.92
77519;DHT22;66629;47.346;19.038;2023-01-16T07:48:22;4.43;96.76
77519;DHT22;66629;47.346;19.038;2023-01-16T07:50:55;4.48;96.67
77519;DHT22;66629;47.346;19.038;2023-01-16T07:53:23;4.48;96.51
77519;DHT22;66629;47.346;19.038;2023-01-16T07:55:50;4.44;96.80
77519;DHT22;66629;47.346;19.038;2023-01-16T07:58:17;4.53;96.55
77519;DHT22;66629;47.346;19.038;2023-01-16T08:00:43;4.51;96.85
77519;DHT22;66629;47.346;19.038;2023-01-16T08:03:09;4.48;96.86
77519;DHT22;66629;47.346;19.038;2023-01-16T08:05:34;4.53;96.69
77519;DHT22;66629;47.346;19.038;2023-01-16T08:07:59;4.41;97.01
77519;DHT22;66629;47.346;19.038;2023-01-16T08:10:25;4.48;97.15
77519;DHT22;66629;47.346;19.038;2023-01-16T08:12:50;4.54;96.94
77519;DHT22;66629;47.346;19.038;2023-01-16T08:15:16;4.48;97.12
77519;DHT22;66629;47.346;19.038;2023-01-16T08:17:41;4.48;97.10
77519;DHT22;66629;47.346;19.038;2023-01-16T08:20:08;4.48;97.15
77519;DHT22;66629;47.346;19.038;2023-01-16T08:22:34;4.51;96.84
77519;DHT22;66629;47.346;19.038;2023-01-16T08:24:59;4.54;96.88
77519;DHT22;66629;47.346;19.038;2023-01-16T08:27:24;4.60;97.04
77519;DHT22;66629;47.346;19.038;2023-01-16T08:29:50;4.78;96.83
77519;DHT22;66629;47.346;19.038;2023-01-16T08:32:15;4.74;96.75
77519;DHT22;66629;47.346;19.038;2023-01-16T08:34:42;4.79;96.66
77519;DHT22;66629;47.346;19.038;2023-01-16T08:37:07;4.75;95.98
77519;DHT22;66629;47.346;19.038;2023-01-16T08:39:38;4.85;95.88
77519;DHT22;66629;47.346;19.038;2023-01-16T08:42:04;4.89;95.74
77519;DHT22;66629;47.346;19.038;2023-01-16T08:44:48;4.81;95.75
77519;DHT22;66629;47.346;19.038;2023-01-16T08:47:32;4.85;95.79
77519;DHT22;66629;47.346;19.038;2023-01-16T08:50:19;4.82;95.73
77519;DHT22;66629;47.346;19.038;2023-01-16T08:53:04;4.88;95.75
77519;DHT22;66629;47.346;19.038;2023-01-16T08:55:30;4.96;95.57
77519;DHT22;66629;47.346;19.038;2023-01-16T08:57:55;4.90;95.73
77519;DHT22;66629;47.346;19.038;2023-01-16T09:00:26;4.95;95.52
77519;DHT22;66629;47.346;19.038;2023-01-16T09:02:52;4.95;95.46
77519;DHT22;66629;47.346;19.038;2023-01-16T09:05:19;4.93;95.82
77519;DHT22;66629;47.346;19.038;2023-01-16T09:07:44;4.90;94.87
77519;DHT22;66629;47.346;19.038;2023-01-16T09:10:10;4.88;94.50
77519;DHT22;66629;47.346;19.038;2023-01-16T09:12:36;4.78;95.31
77519;DHT22;66629;47.346;19.038;2023-01-16T09:15:31;4.78;95.00
77519;DHT22;66629;47.346;19.038;2023-01-16T09:17:57;4.83;94.73
77519;DHT22;66629;47.346;19.038;2023-01-16T09:20:22;4.79;95.10
77519;DHT22;66629;47.346;19.038;2023-01-16T09:22:48;4.79;94.93
77519;DHT22;66629;47.346;19.038;2023-01-16T09:25:19;4.79;94.83
77519;DHT22;66629;47.346;19.038;2023-01-16T09:27:46;4.75;94.77
77519;DHT22;66629;47.346;19.038;2023-01-16T09:30:12;4.85;94.62
77519;DHT22;66629;47.346;19.038;2023-01-16T09:32:37;4.89;94.96
77519;DHT22;66629;47.346;19.038;2023-01-16T09:35:03;4.86;94.65
77519;DHT22;66629;47.346;19.038;2023-01-16T09:37:28;4.85;94.73
77519;DHT22;66629;47.346;19.038;2023-01-16T09:39:54;4.90;94.70
77519;DHT22;66629;47.346;19.038;2023-01-16T09:42:36;4.92;94.23
77519;DHT22;66629;47.346;19.038;2023-01-16T09:45:25;5.03;94.17
77519;DHT22;66629;47.346;19.038;2023-01-16T09:48:00;5.06;93.89
77519;DHT22;66629;47.346;19.038;2023-01-16T09:50:37;5.03;93.88
77519;DHT22;66629;47.346;19.038;2023-01-16T09:53:08;4.99;93.90
77519;DHT22;66629;47.346;19.038;2023-01-16T09:55:52;5.07;94.43
77519;DHT22;66629;47.346;19.038;2023-01-16T09:58:40;5.13;93.83
77519;DHT22;66629;47.346;19.038;2023-01-16T10:01:22;5.10;93.47
77519;DHT22;66629;47.346;19.038;2023-01-16T10:03:48;5.07;93.95
77519;DHT22;66629;47.346;19.038;2023-01-16T10:09:10;5.09;93.78
77519;DHT22;66629;47.346;19.038;2023-01-16T10:11:45;5.12;94.17
77519;DHT22;66629;47.346;19.038;2023-01-16T10:14:30;5.13;93.75
77519;DHT22;66629;47.346;19.038;2023-01-16T10:17:17;5.15;93.80
77519;DHT22;66629;47.346;19.038;2023-01-16T10:20:14;5.13;93.72
77519;DHT22;66629;47.346;19.038;2023-01-16T10:31:22;5.20;93.14
77519;DHT22;66629;47.346;19.038;2023-01-16T10:33:54;5.20;92.94
77519;DHT22;66629;47.346;19.038;2023-01-16T10:36:29;5.19;92.86
77519;DHT22;66629;47.346;19.038;2023-01-16T10:38:57;5.17;92.71
77519;DHT22;66629;47.346;19.038;2023-01-16T10:44:43;5.17;92.86
77519;DHT22;66629;47.346;19.038;2023-01-16T10:47:32;5.12;92.46
77519;DHT22;66629;47.346;19.038;2023-01-16T10:50:18;5.17;92.90
77519;DHT22;66629;47.346;19.038;2023-01-16T10:52:46;5.20;92.69
77519;DHT22;66629;47.346;19.038;2023-01-16T10:55:13;5.26;92.37
77519;DHT22;66629;47.346;19.038;2023-01-16T10:57:44;5.16;92.61
77519;DHT22;66629;47.346;19.038;2023-01-16T11:00:19;5.20;92.74
77519;DHT22;66629;47.346;19.038;2023-01-16T11:02:48;5.20;93.42
77519;DHT22;66629;47.346;19.038;2023-01-16T11:07:48;5.19;93.26
77519;DHT22;66629;47.346;19.038;2023-01-16T11:10:15;5.17;93.88
77519;DHT22;66629;47.346;19.038;2023-01-16T11:12:40;5.17;93.96
77519;DHT22;66629;47.346;19.038;2023-01-16T11:15:24;5.19;94.24
77519;DHT22;66629;47.346;19.038;2023-01-16T11:18:30;5.20;94.20
77519;DHT22;66629;47.346;19.038;2023-01-16T11:21:01;5.16;94.25
77519;DHT22;66629;47.346;19.038;2023-01-16T11:23:39;5.15;94.50
77519;DHT22;66629;47.346;19.038;2023-01-16T11:26:07;5.17;94.49
77519;DHT22;66629;47.346;19.038;2023-01-16T11:28:34;5.10;94.48
77519;DHT22;66629;47.346;19.038;2023-01-16T11:31:13;5.13;94.67
77519;DHT22;66629;47.346;19.038;2023-01-16T11:33:45;5.09;94.71
77519;DHT22;66629;47.346;19.038;2023-01-16T11:36:15;5.12;95.24
77519;DHT22;66629;47.346;19.038;2023-01-16T11:38:44;5.09;95.09
77519;DHT22;66629;47.346;19.038;2023-01-16T11:41:10;5.07;95.68
77519;DHT22;66629;47.346;19.038;2023-01-16T11:43:36;5.10;95.75
77519;DHT22;66629;47.346;19.038;2023-01-16T11:46:38;5.09;95.33
77519;DHT22;66629;47.346;19.038;2023-01-16T11:49:18;5.05;95.54
77519;DHT22;66629;47.346;19.038;2023-01-16T11:51:49;5.07;95.61
77519;DHT22;66629;47.346;19.038;2023-01-16T11:54:26;5.12;96.04
77519;DHT22;66629;47.346;19.038;2023-01-16T11:59:44;5.16;95.80
77519;DHT22;66629;47.346;19.038;2023-01-16T12:02:15;5.16;95.71
77519;DHT22;66629;47.346;19.038;2023-01-16T12:04:53;5.13;95.48
77519;DHT22;66629;47.346;19.038;2023-01-16T12:10:43;5.16;96.15
77519;DHT22;66629;47.346;19.038;2023-01-16T12:13:11;5.09;95.93
77519;DHT22;66629;47.346;19.038;2023-01-16T12:19:19;5.09;96.18
77519;DHT22;66629;47.346;19.038;2023-01-16T12:24:43;5.06;96.09
77519;DHT22;66629;47.346;19.038;2023-01-16T12:30:30;5.07;96.05
77519;DHT22;66629;47.346;19.038;2023-01-16T12:38:26;5.10;95.98
77519;DHT22;66629;47.346;19.038;2023-01-16T12:44:41;5.09;96.61
77519;DHT22;66629;47.346;19.038;2023-01-16T12:49:23;5.09;96.14
77519;DHT22;66629;47.346;19.038;2023-01-16T12:54:53;5.06;96.13
77519;DHT22;66629;47.346;19.038;2023-01-16T13:00:00;5.10;95.93
77519;DHT22;66629;47.346;19.038;2023-01-16T13:02:51;5.12;96.04
77519;DHT22;66629;47.346;19.038;2023-01-16T13:05:20;5.13;95.94
77519;DHT22;66629;47.346;19.038;2023-01-16T13:10:40;5.07;95.50
77519;DHT22;66629;47.346;19.038;2023-01-16T13:13:29;5.06;95.61
77519;DHT22;66629;47.346;19.038;2023-01-16T13:16:04;5.06;95.05
77519;DHT22;66629;47.346;19.038;2023-01-16T13:18:43;5.03;95.56
77519;DHT22;66629;47.346;19.038;2023-01-16T13:21:22;5.01;95.35
77519;DHT22;66629;47.346;19.038;2023-01-16T13:24:04;5.00;95.51
77519;DHT22;66629;47.346;19.038;2023-01-16T13:26:34;5.05;95.17
77519;DHT22;66629;47.346;19.038;2023-01-16T13:29:28;5.00;95.46
77519;DHT22;66629;47.346;19.038;2023-01-16T13:32:00;5.00;95.31
77519;DHT22;66629;47.346;19.038;2023-01-16T13:34:36;5.05;94.99
77519;DHT22;66629;47.346;19.038;2023-01-16T13:37:17;5.01;95.21
77519;DHT22;66629;47.346;19.038;2023-01-16T13:42:31;5.03;94.97
77519;DHT22;66629;47.346;19.038;2023-01-16T13:45:02;5.00;95.13
77519;DHT22;66629;47.346;19.038;2023-01-16T13:48:04;5.03;95.29
77519;DHT22;66629;47.346;19.038;2023-01-16T13:50:30;5.06;95.14
77519;DHT22;66629;47.346;19.038;2023-01-16T13:53:08;4.96;94.76
77519;DHT22;66629;47.346;19.038;2023-01-16T13:55:36;4.92;95.01
77519;DHT22;66629;47.346;19.038;2023-01-16T13:58:20;4.92;95.32
77519;DHT22;66629;47.346;19.038;2023-01-16T14:03:27;4.96;94.99
77519;DHT22;66629;47.346;19.038;2023-01-16T14:12:19;4.83;95.48
77519;DHT22;66629;47.346;19.038;2023-01-16T14:14:48;4.83;95.59
77519;DHT22;66629;47.346;19.038;2023-01-16T14:18:18;4.83;95.58
77519;DHT22;66629;47.346;19.038;2023-01-16T14:20:50;4.76;95.75
77519;DHT22;66629;47.346;19.038;2023-01-16T14:23:27;4.79;95.99
77519;DHT22;66629;47.346;19.038;2023-01-16T14:26:21;4.78;95.91
77519;DHT22;66629;47.346;19.038;2023-01-16T14:28:48;4.76;96.11
77519;DHT22;66629;47.346;19.038;2023-01-16T14:31:37;4.75;96.49
77519;DHT22;66629;47.346;19.038;2023-01-16T14:34:03;4.82;96.35
77519;DHT22;66629;47.346;19.038;2023-01-16T14:36:33;4.75;96.42
77519;DHT22;66629;47.346;19.038;2023-01-16T14:38:59;4.74;96.31
77519;DHT22;66629;47.346;19.038;2023-01-16T14:41:31;4.69;96.80
77519;DHT22;66629;47.346;19.038;2023-01-16T14:44:21;4.74;96.51
77519;DHT22;66629;47.346;19.038;2023-01-16T14:50:38;4.74;96.65
77519;DHT22;66629;47.346;19.038;2023-01-16T14:53:25;4.78;96.60
77519;DHT22;66629;47.346;19.038;2023-01-16T14:58:45;4.71;96.96
77519;DHT22;66629;47.346;19.038;2023-01-16T15:01:25;4.69;96.72
77519;DHT22;66629;47.346;19.038;2023-01-16T15:04:12;4.69;97.06
77519;DHT22;66629;47.346;19.038;2023-01-16T15:06:41;4.79;96.42
77519;DHT22;66629;47.346;19.038;2023-01-16T15:09:13;4.79;96.86
77519;DHT22;66629;47.346;19.038;2023-01-16T15:12:00;4.78;96.74
77519;DHT22;66629;47.346;19.038;2023-01-16T15:14:26;4.76;96.45
77519;DHT22;66629;47.346;19.038;2023-01-16T15:17:15;4.72;96.75
77519;DHT22;66629;47.346;19.038;2023-01-16T15:20:16;4.72;96.68
77519;DHT22;66629;47.346;19.038;2023-01-16T15:23:05;4.81;96.75
77519;DHT22;66629;47.346;19.038;2023-01-16T15:25:54;4.78;96.59
77519;DHT22;66629;47.346;19.038;2023-01-16T15:31:36;4.79;96.54
77519;DHT22;66629;47.346;19.038;2023-01-16T15:36:44;4.72;97.06
77519;DHT22;66629;47.346;19.038;2023-01-16T15:41:50;4.97;99.18
77519;DHT22;66629;47.346;19.038;2023-01-16T15:44:37;4.88;97.13
77519;DHT22;66629;47.346;19.038;2023-01-16T15:53:00;4.82;97.58
77519;DHT22;66629;47.346;19.038;2023-01-16T15:55:29;4.88;97.33
77519;DHT22;66629;47.346;19.038;2023-01-16T15:58:01;4.90;96.93
77519;DHT22;66629;47.346;19.038;2023-01-16T16:02:57;4.89;97.28
77519;DHT22;66629;47.346;19.038;2023-01-16T16:05:23;4.92;97.03
77519;DHT22;66629;47.346;19.038;2023-01-16T16:07:50;4.96;97.12
77519;DHT22;66629;47.346;19.038;2023-01-16T16:10:16;4.92;97.23
77519;DHT22;66629;47.346;19.038;2023-01-16T16:13:04;4.93;97.55
77519;DHT22;66629;47.346;19.038;2023-01-16T16:15:30;4.95;97.43
77519;DHT22;66629;47.346;19.038;2023-01-16T16:18:17;4.99;97.24
77519;DHT22;66629;47.346;19.038;2023-01-16T16:20:44;4.97;97.41
77519;DHT22;66629;47.346;19.038;2023-01-16T16:23:19;4.96;97.45
77519;DHT22;66629;47.346;19.038;2023-01-16T16:25:59;4.96;97.54
77519;DHT22;66629;47.346;19.038;2023-01-16T16:31:14;4.95;97.62
77519;DHT22;66629;47.346;19.038;2023-01-16T16:34:02;4.96;97.72
77519;DHT22;66629;47.346;19.038;2023-01-16T16:36:37;4.96;97.88
77519;DHT22;66629;47.346;19.038;2023-01-16T16:39:28;4.95;97.76
77519;DHT22;66629;47.346;19.038;2023-01-16T16:41:52;5.00;97.84
77519;DHT22;66629;47.346;19.038;2023-01-16T16:44:46;4.96;97.92
77519;DHT22;66629;47.346;19.038;2023-01-16T16:47:29;5.00;97.78
77519;DHT22;66629;47.346;19.038;2023-01-16T16:49:55;5.03;97.63
77519;DHT22;66629;47.346;19.038;2023-01-16T16:52:44;5.05;97.66
77519;DHT22;66629;47.346;19.038;2023-01-16T16:55:34;5.06;97.42
77519;DHT22;66629;47.346;19.038;2023-01-16T16:58:02;5.10;97.18
77519;DHT22;66629;47.346;19.038;2023-01-16T17:00:29;5.07;97.11
77519;DHT22;66629;47.346;19.038;2023-01-16T17:03:04;5.12;97.24
77519;DHT22;66629;47.346;19.038;2023-01-16T17:05:30;5.12;97.18
77519;DHT22;66629;47.346;19.038;2023-01-16T17:07:56;5.10;97.22
77519;DHT22;66629;47.346;19.038;2023-01-16T17:10:22;5.13;97.21
77519;DHT22;66629;47.346;19.038;2023-01-16T17:12:48;5.16;96.82
77519;DHT22;66629;47.346;19.038;2023-01-16T17:15:13;5.19;96.61
77519;DHT22;66629;47.346;19.038;2023-01-16T17:17:42;5.16;96.97
77519;DHT22;66629;47.346;19.038;2023-01-16T17:22:39;5.17;96.91
77519;DHT22;66629;47.346;19.038;2023-01-16T17:25:09;5.17;96.57
77519;DHT22;66629;47.346;19.038;2023-01-16T17:27:39;5.24;96.63
77519;DHT22;66629;47.346;19.038;2023-01-16T17:30:07;5.23;95.80
77519;DHT22;66629;47.346;19.038;2023-01-16T17:32:33;5.20;96.45
77519;DHT22;66629;47.346;19.038;2023-01-16T17:34:59;5.20;96.35
77519;DHT22;66629;47.346;19.038;2023-01-16T17:37:25;5.16;96.19
77519;DHT22;66629;47.346;19.038;2023-01-16T17:39:50;5.17;96.49
77519;DHT22;66629;47.346;19.038;2023-01-16T17:42:16;5.16;96.52
77519;DHT22;66629;47.346;19.038;2023-01-16T17:44:41;5.15;96.71
77519;DHT22;66629;47.346;19.038;2023-01-16T17:47:25;5.17;96.42
77519;DHT22;66629;47.346;19.038;2023-01-16T17:49:52;5.12;96.37
77519;DHT22;66629;47.346;19.038;2023-01-16T17:52:36;5.12;96.45
77519;DHT22;66629;47.346;19.038;2023-01-16T17:55:02;5.12;96.59
77519;DHT22;66629;47.346;19.038;2023-01-16T17:57:45;5.10;96.74
77519;DHT22;66629;47.346;19.038;2023-01-16T18:00:11;5.10;96.57
77519;DHT22;66629;47.346;19.038;2023-01-16T18:02:36;5.09;96.52
77519;DHT22;66629;47.346;19.038;2023-01-16T18:05:03;5.09;96.74
77519;DHT22;66629;47.346;19.038;2023-01-16T18:07:29;5.13;96.75
77519;DHT22;66629;47.346;19.038;2023-01-16T18:09:54;5.10;96.58